createdAt,value
2017-10-25T00:00:49.501Z,1012.72
2017-10-25T00:01:49.469Z,1012.70
2017-10-25T00:02:49.437Z,1012.67
2017-10-25T00:03:49.405Z,1012.71
2017-10-25T00:04:49.373Z,1012.68
2017-10-25T00:05:49.340Z,1012.74
2017-10-25T00:06:49.309Z,1012.73
2017-10-25T00:07:49.276Z,1012.74
2017-10-25T00:08:49.242Z,1012.68
2017-10-25T00:09:49.216Z,1012.72
2017-10-25T00:10:49.180Z,1012.70
2017-10-25T00:11:49.147Z,1012.70
2017-10-25T00:12:49.115Z,1012.67
2017-10-25T00:13:49.083Z,1012.56
2017-10-25T00:14:49.053Z,1012.69
2017-10-25T00:15:49.021Z,1012.67
2017-10-25T00:16:48.987Z,1012.65
2017-10-25T00:17:48.954Z,1012.63
2017-10-25T00:18:48.924Z,1012.71
2017-10-25T00:19:48.890Z,1012.69
2017-10-25T00:20:48.859Z,1012.69
2017-10-25T00:21:48.825Z,1012.65
2017-10-25T00:22:48.793Z,1012.65
2017-10-25T00:23:48.767Z,1012.61
2017-10-25T00:24:48.728Z,1012.66
2017-10-25T00:25:48.698Z,1012.64
2017-10-25T00:26:48.666Z,1012.59
2017-10-25T00:27:48.632Z,1012.68
2017-10-25T00:28:48.600Z,1012.65
2017-10-25T00:29:48.576Z,1012.63
2017-10-25T00:30:48.538Z,1012.63
2017-10-25T00:31:48.506Z,1012.63
2017-10-25T00:32:48.478Z,1012.68
2017-10-25T00:33:48.441Z,1012.65
2017-10-25T00:34:48.409Z,1012.62
2017-10-25T00:35:48.375Z,1012.59
2017-10-25T00:36:48.345Z,1012.67
2017-10-25T00:37:48.312Z,1012.66
2017-10-25T00:38:48.280Z,1012.58
2017-10-25T00:39:48.248Z,1012.62
2017-10-25T00:40:48.303Z,1012.53
2017-10-25T00:41:48.184Z,1012.63
2017-10-25T00:42:48.155Z,1012.62
2017-10-25T00:43:48.124Z,1012.59
2017-10-25T00:44:48.090Z,1012.58
2017-10-25T00:45:48.056Z,1012.52
2017-10-25T00:46:48.026Z,1012.44
2017-10-25T00:47:47.993Z,1012.53
2017-10-25T00:48:47.959Z,1012.46
2017-10-25T00:49:47.927Z,1012.50
2017-10-25T00:50:47.896Z,1012.42
2017-10-25T00:51:47.866Z,1012.53
2017-10-25T00:52:47.831Z,1012.50
2017-10-25T00:53:47.800Z,1012.46
2017-10-25T00:54:47.768Z,1012.46
2017-10-25T00:55:47.737Z,1012.45
2017-10-25T00:56:47.704Z,1012.46
2017-10-25T00:57:47.674Z,1012.51
2017-10-25T00:58:47.639Z,1012.45
2017-10-25T00:59:47.607Z,1012.37
2017-10-25T01:00:47.575Z,1012.44
2017-10-25T01:01:47.543Z,1012.41
2017-10-25T01:02:47.511Z,1012.41
2017-10-25T01:03:47.481Z,1012.42
2017-10-25T01:04:47.447Z,1012.47
2017-10-25T01:05:47.415Z,1012.41
2017-10-25T01:06:47.384Z,1012.49
2017-10-25T01:07:47.350Z,1012.50
2017-10-25T01:08:47.318Z,1012.47
2017-10-25T01:09:47.286Z,1012.51
2017-10-25T01:10:47.255Z,1012.53
2017-10-25T01:11:47.227Z,1012.54
2017-10-25T01:12:47.193Z,1012.48
2017-10-25T01:13:47.158Z,1012.53
2017-10-25T01:14:47.126Z,1012.56
2017-10-25T01:15:47.098Z,1012.47
2017-10-25T01:16:47.516Z,1012.51
2017-10-25T01:17:47.031Z,1012.45
2017-10-25T01:18:46.999Z,1012.52
2017-10-25T01:19:46.966Z,1012.42
2017-10-25T01:20:46.934Z,1012.47
2017-10-25T01:21:46.906Z,1012.46
2017-10-25T01:22:46.872Z,1012.46
2017-10-25T01:23:46.837Z,1012.49
2017-10-25T01:24:46.806Z,1012.48
2017-10-25T01:25:46.774Z,1012.47
2017-10-25T01:26:46.742Z,1012.45
2017-10-25T01:27:46.711Z,1012.47
2017-10-25T01:28:46.678Z,1012.45
2017-10-25T01:29:46.646Z,1012.43
2017-10-25T01:30:46.618Z,1012.45
2017-10-25T01:31:46.581Z,1012.35
2017-10-25T01:32:46.552Z,1012.38
2017-10-25T01:33:46.518Z,1012.47
2017-10-25T01:34:46.487Z,1012.36
2017-10-25T01:35:46.453Z,1012.34
2017-10-25T01:36:46.422Z,1012.33
2017-10-25T01:37:46.390Z,1012.33
2017-10-25T01:38:46.361Z,1012.33
2017-10-25T01:39:46.325Z,1012.35
2017-10-25T01:40:46.292Z,1012.28
2017-10-25T01:41:46.263Z,1012.34
2017-10-25T01:42:46.229Z,1012.33
2017-10-25T01:43:46.199Z,1012.32
2017-10-25T01:44:46.166Z,1012.24
2017-10-25T01:45:46.133Z,1012.24
2017-10-25T01:46:46.110Z,1012.36
2017-10-25T01:47:46.070Z,1012.31
2017-10-25T01:48:46.036Z,1012.33
2017-10-25T01:49:46.416Z,1012.33
2017-10-25T01:50:45.975Z,1012.29
2017-10-25T01:51:45.943Z,1012.31
2017-10-25T01:52:45.907Z,1012.36
2017-10-25T01:53:45.877Z,1012.31
2017-10-25T01:54:45.844Z,1012.31
2017-10-25T01:55:45.815Z,1012.34
2017-10-25T01:56:45.780Z,1012.29
2017-10-25T01:57:45.749Z,1012.27
2017-10-25T01:58:45.717Z,1012.22
2017-10-25T01:59:45.684Z,1012.21
2017-10-25T02:00:45.655Z,1012.17
2017-10-25T02:01:45.620Z,1012.12
2017-10-25T02:02:45.594Z,1012.15
2017-10-25T02:03:45.556Z,1012.12
2017-10-25T02:04:45.523Z,1012.06
2017-10-25T02:05:45.492Z,1012.09
2017-10-25T02:06:45.459Z,1012.13
2017-10-25T02:07:45.427Z,1012.06
2017-10-25T02:08:45.400Z,1012.07
2017-10-25T02:09:45.362Z,1012.06
2017-10-25T02:10:45.332Z,1012.06
2017-10-25T02:11:45.299Z,1012.00
2017-10-25T02:12:45.271Z,1012.04
2017-10-25T02:13:45.236Z,1012.04
2017-10-25T02:14:45.203Z,1011.91
2017-10-25T02:15:45.170Z,1012.03
2017-10-25T02:16:45.211Z,1011.99
2017-10-25T02:17:45.107Z,1011.99
2017-10-25T02:18:45.076Z,1012.02
2017-10-25T02:19:45.041Z,1011.86
2017-10-25T02:20:45.010Z,1011.92
2017-10-25T02:21:44.971Z,1011.92
2017-10-25T02:22:44.947Z,1011.92
2017-10-25T02:23:44.912Z,1011.95
2017-10-25T02:24:44.881Z,1011.95
2017-10-25T02:25:44.848Z,1011.90
2017-10-25T02:26:44.816Z,1011.91
2017-10-25T02:27:44.784Z,1011.91
2017-10-25T02:28:44.752Z,1011.89
2017-10-25T02:29:44.719Z,1011.87
2017-10-25T02:30:44.688Z,1011.86
2017-10-25T02:31:44.656Z,1011.89
2017-10-25T02:32:44.624Z,1011.86
2017-10-25T02:33:44.592Z,1011.88
2017-10-25T02:34:44.559Z,1011.88
2017-10-25T02:35:44.529Z,1011.90
2017-10-25T02:36:44.498Z,1011.97
2017-10-25T02:37:44.464Z,1011.91
2017-10-25T02:38:44.430Z,1011.93
2017-10-25T02:39:44.405Z,1011.91
2017-10-25T02:40:44.366Z,1011.85
2017-10-25T02:41:44.333Z,1011.91
2017-10-25T02:42:44.300Z,1011.94
2017-10-25T02:43:44.270Z,1011.93
2017-10-25T02:44:44.236Z,1011.92
2017-10-25T02:45:44.205Z,1011.95
2017-10-25T02:46:44.173Z,1011.98
2017-10-25T02:47:44.140Z,1011.93
2017-10-25T02:48:44.107Z,1011.95
2017-10-25T02:49:44.076Z,1011.95
2017-10-25T02:50:44.044Z,1011.95
2017-10-25T02:51:44.011Z,1011.96
2017-10-25T02:52:43.982Z,1011.98
2017-10-25T02:53:43.947Z,1012.00
2017-10-25T02:54:43.914Z,1012.02
2017-10-25T02:55:43.881Z,1012.00
2017-10-25T02:56:43.849Z,1011.98
2017-10-25T02:57:43.816Z,1011.91
2017-10-25T02:58:43.786Z,1011.95
2017-10-25T02:59:43.751Z,1011.96
2017-10-25T03:00:43.720Z,1011.94
2017-10-25T03:01:43.687Z,1011.92
2017-10-25T03:02:43.654Z,1011.98
2017-10-25T03:03:43.624Z,1011.96
2017-10-25T03:04:43.591Z,1011.97
2017-10-25T03:05:43.558Z,1011.94
2017-10-25T03:06:43.525Z,1011.93
2017-10-25T03:07:43.491Z,1011.94
2017-10-25T03:08:43.460Z,1011.95
2017-10-25T03:09:43.428Z,1011.96
2017-10-25T03:10:43.395Z,1011.96
2017-10-25T03:11:43.362Z,1011.91
2017-10-25T03:12:43.330Z,1011.94
2017-10-25T03:13:43.299Z,1011.91
2017-10-25T03:14:43.265Z,1011.95
2017-10-25T03:15:43.241Z,1011.97
2017-10-25T03:16:43.201Z,1011.97
2017-10-25T03:17:43.169Z,1011.93
2017-10-25T03:18:43.135Z,1011.98
2017-10-25T03:19:43.103Z,1011.94
2017-10-25T03:20:43.071Z,1011.91
2017-10-25T03:21:43.038Z,1011.93
2017-10-25T03:22:43.005Z,1011.95
2017-10-25T03:23:42.973Z,1011.86
2017-10-25T03:24:42.941Z,1011.83
2017-10-25T03:25:42.909Z,1011.84
2017-10-25T03:26:42.877Z,1011.83
2017-10-25T03:27:42.850Z,1011.89
2017-10-25T03:28:42.810Z,1011.83
2017-10-25T03:29:42.778Z,1011.85
2017-10-25T03:30:42.748Z,1011.82
2017-10-25T03:31:42.710Z,1011.77
2017-10-25T03:32:42.679Z,1011.77
2017-10-25T03:33:42.648Z,1011.82
2017-10-25T03:34:42.616Z,1011.65
2017-10-25T03:35:42.581Z,1011.78
2017-10-25T03:36:42.549Z,1011.78
2017-10-25T03:37:42.517Z,1011.83
2017-10-25T03:38:42.483Z,1011.85
2017-10-25T03:39:42.452Z,1011.79
2017-10-25T03:40:42.418Z,1011.79
2017-10-25T03:41:42.385Z,1011.79
2017-10-25T03:42:42.355Z,1011.79
2017-10-25T03:43:42.319Z,1011.77
2017-10-25T03:44:42.285Z,1011.76
2017-10-25T03:45:42.256Z,1011.80
2017-10-25T03:46:42.222Z,1011.80
2017-10-25T03:47:42.187Z,1011.77
2017-10-25T03:48:42.156Z,1011.78
2017-10-25T03:49:42.122Z,1011.81
2017-10-25T03:50:42.091Z,1011.81
2017-10-25T03:51:42.057Z,1011.80
2017-10-25T03:52:42.027Z,1011.82
2017-10-25T03:53:42.096Z,1011.84
2017-10-25T03:54:41.963Z,1011.78
2017-10-25T03:55:41.926Z,1011.82
2017-10-25T03:56:41.894Z,1011.86
2017-10-25T03:57:41.864Z,1011.82
2017-10-25T03:58:42.147Z,1011.88
2017-10-25T03:59:41.793Z,1011.85
2017-10-25T04:00:42.243Z,1011.78
2017-10-25T04:01:41.729Z,1011.82
2017-10-25T04:02:41.695Z,1011.81
2017-10-25T04:03:41.662Z,1011.81
2017-10-25T04:04:41.630Z,1011.73
2017-10-25T04:05:41.598Z,1011.76
2017-10-25T04:06:41.564Z,1011.72
2017-10-25T04:07:41.532Z,1011.75
2017-10-25T04:08:41.499Z,1011.71
2017-10-25T04:09:41.466Z,1011.77
2017-10-25T04:10:41.433Z,1011.76
2017-10-25T04:11:41.400Z,1011.81
2017-10-25T04:12:41.367Z,1011.77
2017-10-25T04:13:41.334Z,1011.75
2017-10-25T04:14:41.304Z,1011.78
2017-10-25T04:15:41.268Z,1011.78
2017-10-25T04:16:41.237Z,1011.82
2017-10-25T04:17:41.204Z,1011.92
2017-10-25T04:18:41.172Z,1011.84
2017-10-25T04:19:41.140Z,1011.88
2017-10-25T04:20:41.113Z,1011.90
2017-10-25T04:21:41.074Z,1011.94
2017-10-25T04:22:41.042Z,1011.94
2017-10-25T04:23:41.009Z,1012.00
2017-10-25T04:24:40.977Z,1011.95
2017-10-25T04:25:40.944Z,1012.03
2017-10-25T04:26:40.913Z,1012.00
2017-10-25T04:27:40.881Z,1011.93
2017-10-25T04:28:40.848Z,1011.99
2017-10-25T04:29:40.812Z,1011.86
2017-10-25T04:30:40.775Z,1011.91
2017-10-25T04:31:40.751Z,1012.00
2017-10-25T04:32:40.733Z,1011.96
2017-10-25T04:33:40.682Z,1011.99
2017-10-25T04:34:40.650Z,1011.97
2017-10-25T04:35:40.618Z,1011.87
2017-10-25T04:36:40.586Z,1011.92
2017-10-25T04:37:40.553Z,1011.86
2017-10-25T04:38:40.528Z,1011.91
2017-10-25T04:39:40.486Z,1011.96
2017-10-25T04:40:40.459Z,1011.89
2017-10-25T04:41:40.423Z,1011.77
2017-10-25T04:42:40.390Z,1011.91
2017-10-25T04:43:40.357Z,1011.86
2017-10-25T04:44:40.326Z,1011.88
2017-10-25T04:45:40.297Z,1011.90
2017-10-25T04:46:40.263Z,1011.88
2017-10-25T04:47:40.227Z,1011.83
2017-10-25T04:48:40.195Z,1011.81
2017-10-25T04:49:40.167Z,1011.87
2017-10-25T04:50:40.125Z,1011.86
2017-10-25T04:51:40.098Z,1011.85
2017-10-25T04:52:40.065Z,1011.91
2017-10-25T04:53:40.032Z,1011.82
2017-10-25T04:54:40.018Z,1011.80
2017-10-25T04:55:39.970Z,1011.80
2017-10-25T04:56:40.097Z,1011.79
2017-10-25T04:57:39.904Z,1011.77
2017-10-25T04:58:39.879Z,1011.75
2017-10-25T04:59:39.838Z,1011.71
2017-10-25T05:00:39.805Z,1011.63
2017-10-25T05:01:39.774Z,1011.68
2017-10-25T05:02:39.741Z,1011.67
2017-10-25T05:03:39.709Z,1011.66
2017-10-25T05:04:39.691Z,1011.67
2017-10-25T05:05:39.677Z,1011.65
2017-10-25T05:06:39.612Z,1011.62
2017-10-25T05:07:39.578Z,1011.56
2017-10-25T05:08:39.546Z,1011.55
2017-10-25T05:09:39.525Z,1011.60
2017-10-25T05:10:39.482Z,1011.58
2017-10-25T05:11:39.447Z,1011.56
2017-10-25T05:12:39.416Z,1011.62
2017-10-25T05:13:39.425Z,1011.64
2017-10-25T05:14:39.352Z,1011.62
2017-10-25T05:15:39.332Z,1011.69
2017-10-25T05:16:39.288Z,1011.73
2017-10-25T05:17:39.254Z,1011.69
2017-10-25T05:18:39.223Z,1011.68
2017-10-25T05:19:39.189Z,1011.56
2017-10-25T05:20:39.156Z,1011.59
2017-10-25T05:21:39.125Z,1011.64
2017-10-25T05:22:39.092Z,1011.65
2017-10-25T05:23:39.059Z,1011.66
2017-10-25T05:24:39.027Z,1011.69
2017-10-25T05:25:38.994Z,1011.69
2017-10-25T05:26:38.963Z,1011.68
2017-10-25T05:27:38.931Z,1011.67
2017-10-25T05:28:38.913Z,1011.65
2017-10-25T05:29:39.740Z,1011.69
2017-10-25T05:30:38.831Z,1011.63
2017-10-25T05:31:38.797Z,1011.61
2017-10-25T05:32:38.766Z,1011.66
2017-10-25T05:33:39.317Z,1011.63
2017-10-25T05:34:38.701Z,1011.64
2017-10-25T05:35:38.668Z,1011.67
2017-10-25T05:36:38.636Z,1011.62
2017-10-25T05:37:38.606Z,1011.63
2017-10-25T05:38:38.571Z,1011.62
2017-10-25T05:39:38.536Z,1011.69
2017-10-25T05:40:38.509Z,1011.73
2017-10-25T05:41:38.480Z,1011.74
2017-10-25T05:42:38.442Z,1011.63
2017-10-25T05:43:38.407Z,1011.68
2017-10-25T05:44:38.374Z,1011.62
2017-10-25T05:45:38.340Z,1011.69
2017-10-25T05:46:38.310Z,1011.66
2017-10-25T05:47:38.274Z,1011.68
2017-10-25T05:48:38.243Z,1011.71
2017-10-25T05:49:38.212Z,1011.68
2017-10-25T05:50:38.178Z,1011.68
2017-10-25T05:51:38.144Z,1011.66
2017-10-25T05:52:38.111Z,1011.62
2017-10-25T05:53:38.079Z,1011.65
2017-10-25T05:54:38.046Z,1011.61
2017-10-25T05:55:38.257Z,1011.57
2017-10-25T05:56:37.984Z,1011.65
2017-10-25T05:57:37.948Z,1011.72
2017-10-25T05:58:37.915Z,1011.73
2017-10-25T05:59:37.886Z,1011.70
2017-10-25T06:00:37.849Z,1011.69
2017-10-25T06:01:37.816Z,1011.68
2017-10-25T06:02:37.782Z,1011.68
2017-10-25T06:03:37.767Z,1011.70
2017-10-25T06:04:37.717Z,1011.73
2017-10-25T06:05:37.684Z,1011.76
2017-10-25T06:06:37.651Z,1011.71
2017-10-25T06:07:37.617Z,1011.72
2017-10-25T06:08:37.592Z,1011.77
2017-10-25T06:09:37.552Z,1011.69
2017-10-25T06:10:37.523Z,1011.72
2017-10-25T06:11:37.485Z,1011.75
2017-10-25T06:12:37.453Z,1011.71
2017-10-25T06:13:37.417Z,1011.64
2017-10-25T06:14:37.388Z,1011.73
2017-10-25T06:15:37.353Z,1011.66
2017-10-25T06:16:37.322Z,1011.75
2017-10-25T06:17:37.291Z,1011.68
2017-10-25T06:18:37.251Z,1011.64
2017-10-25T06:19:37.324Z,1011.76
2017-10-25T06:20:37.189Z,1011.69
2017-10-25T06:21:37.156Z,1011.80
2017-10-25T06:22:37.122Z,1011.81
2017-10-25T06:23:37.090Z,1011.81
2017-10-25T06:24:37.057Z,1011.78
2017-10-25T06:25:37.023Z,1011.79
2017-10-25T06:26:36.993Z,1011.83
2017-10-25T06:27:36.956Z,1011.78
2017-10-25T06:28:36.923Z,1011.86
2017-10-25T06:29:36.899Z,1011.86
2017-10-25T06:30:36.857Z,1011.83
2017-10-25T06:31:36.830Z,1011.92
2017-10-25T06:32:36.792Z,1011.87
2017-10-25T06:33:36.759Z,1011.85
2017-10-25T06:34:36.725Z,1011.84
2017-10-25T06:35:36.693Z,1011.84
2017-10-25T06:36:36.663Z,1011.78
2017-10-25T06:37:36.626Z,1011.78
2017-10-25T06:38:36.594Z,1011.83
2017-10-25T06:39:36.561Z,1011.88
2017-10-25T06:40:36.526Z,1011.88
2017-10-25T06:41:36.498Z,1011.85
2017-10-25T06:42:36.468Z,1011.86
2017-10-25T06:43:36.427Z,1011.91
2017-10-25T06:44:36.395Z,1011.95
2017-10-25T06:45:36.363Z,1011.94
2017-10-25T06:46:36.330Z,1011.93
2017-10-25T06:47:36.297Z,1011.92
2017-10-25T06:48:36.263Z,1011.84
2017-10-25T06:49:36.230Z,1011.78
2017-10-25T06:50:36.417Z,1011.76
2017-10-25T06:51:36.164Z,1011.75
2017-10-25T06:52:36.132Z,1011.86
2017-10-25T06:53:36.099Z,1011.74
2017-10-25T06:54:36.067Z,1011.79
2017-10-25T06:55:36.032Z,1011.83
2017-10-25T06:56:36.000Z,1011.82
2017-10-25T06:57:35.984Z,1011.85
2017-10-25T06:58:35.934Z,1011.88
2017-10-25T06:59:35.901Z,1011.86
2017-10-25T07:00:35.868Z,1011.90
2017-10-25T07:01:35.836Z,1011.98
2017-10-25T07:02:35.805Z,1012.02
2017-10-25T07:03:35.772Z,1011.98
2017-10-25T07:04:35.739Z,1011.94
2017-10-25T07:05:35.707Z,1012.03
2017-10-25T07:06:35.674Z,1012.07
2017-10-25T07:07:35.641Z,1012.06
2017-10-25T07:08:35.610Z,1012.01
2017-10-25T07:09:35.579Z,1012.14
2017-10-25T07:10:35.546Z,1012.18
2017-10-25T07:11:35.514Z,1012.18
2017-10-25T07:12:35.483Z,1012.11
2017-10-25T07:13:35.449Z,1012.09
2017-10-25T07:14:35.419Z,1012.13
2017-10-25T07:15:35.386Z,1012.08
2017-10-25T07:16:35.355Z,1012.20
2017-10-25T07:17:35.326Z,1012.29
2017-10-25T07:18:35.295Z,1012.23
2017-10-25T07:19:35.264Z,1012.20
2017-10-25T07:20:35.234Z,1012.24
2017-10-25T07:21:35.202Z,1012.32
2017-10-25T07:22:35.174Z,1012.36
2017-10-25T07:23:35.143Z,1012.34
2017-10-25T07:24:35.113Z,1012.30
2017-10-25T07:25:35.083Z,1012.28
2017-10-25T07:26:35.057Z,1012.33
2017-10-25T07:27:35.025Z,1012.28
2017-10-25T07:28:34.997Z,1012.34
2017-10-25T07:29:34.967Z,1012.32
2017-10-25T07:30:34.941Z,1012.30
2017-10-25T07:31:35.342Z,1012.23
2017-10-25T07:32:34.888Z,1012.28
2017-10-25T07:33:34.855Z,1012.29
2017-10-25T07:34:34.827Z,1012.28
2017-10-25T07:35:34.796Z,1012.30
2017-10-25T07:36:34.775Z,1012.39
2017-10-25T07:37:34.740Z,1012.40
2017-10-25T07:38:34.716Z,1012.45
2017-10-25T07:39:34.685Z,1012.41
2017-10-25T07:40:34.760Z,1012.33
2017-10-25T07:41:34.632Z,1012.40
2017-10-25T07:42:34.608Z,1012.40
2017-10-25T07:43:34.576Z,1012.35
2017-10-25T07:44:34.549Z,1012.33
2017-10-25T07:45:34.521Z,1012.41
2017-10-25T07:46:34.495Z,1012.47
2017-10-25T07:47:34.468Z,1012.46
2017-10-25T07:48:34.441Z,1012.50
2017-10-25T07:49:34.417Z,1012.53
2017-10-25T07:50:34.389Z,1012.51
2017-10-25T07:51:34.361Z,1012.45
2017-10-25T07:52:34.334Z,1012.54
2017-10-25T07:53:34.310Z,1012.52
2017-10-25T07:54:34.287Z,1012.49
2017-10-25T07:55:34.259Z,1012.52
2017-10-25T07:56:34.234Z,1012.50
2017-10-25T07:57:34.222Z,1012.53
2017-10-25T07:58:34.187Z,1012.48
2017-10-25T07:59:34.163Z,1012.55
2017-10-25T08:00:34.135Z,1012.46
2017-10-25T08:01:34.111Z,1012.51
2017-10-25T08:02:34.088Z,1012.50
2017-10-25T08:03:34.061Z,1012.47
2017-10-25T08:04:34.038Z,1012.42
2017-10-25T08:05:34.014Z,1012.46
2017-10-25T08:06:33.990Z,1012.44
2017-10-25T08:07:33.965Z,1012.40
2017-10-25T08:08:33.939Z,1012.42
2017-10-25T08:09:33.915Z,1012.42
2017-10-25T08:10:33.891Z,1012.46
2017-10-25T08:11:33.864Z,1012.45
2017-10-25T08:12:33.839Z,1012.58
2017-10-25T08:13:33.812Z,1012.44
2017-10-25T08:14:33.785Z,1012.48
2017-10-25T08:15:33.758Z,1012.50
2017-10-25T08:16:33.733Z,1012.50
2017-10-25T08:17:33.706Z,1012.42
2017-10-25T08:18:33.678Z,1012.50
2017-10-25T08:19:33.650Z,1012.46
2017-10-25T08:20:33.620Z,1012.49
2017-10-25T08:21:33.595Z,1012.52
2017-10-25T08:22:33.568Z,1012.53
2017-10-25T08:23:33.539Z,1012.59
2017-10-25T08:24:33.513Z,1012.70
2017-10-25T08:25:33.486Z,1012.66
2017-10-25T08:26:33.458Z,1012.63
2017-10-25T08:27:33.431Z,1012.71
2017-10-25T08:28:33.404Z,1012.66
2017-10-25T08:29:33.380Z,1012.67
2017-10-25T08:30:33.353Z,1012.68
2017-10-25T08:31:33.327Z,1012.66
2017-10-25T08:32:33.302Z,1012.69
2017-10-25T08:33:33.277Z,1012.55
2017-10-25T08:34:33.258Z,1012.47
2017-10-25T08:35:33.227Z,1012.45
2017-10-25T08:36:33.203Z,1012.55
2017-10-25T08:37:33.176Z,1012.57
2017-10-25T08:38:33.209Z,1012.59
2017-10-25T08:39:33.128Z,1012.60
2017-10-25T08:40:33.101Z,1012.64
2017-10-25T08:41:33.076Z,1012.69
2017-10-25T08:42:33.055Z,1012.52
2017-10-25T08:43:33.028Z,1012.52
2017-10-25T08:44:33.006Z,1012.45
2017-10-25T08:45:32.980Z,1012.58
2017-10-25T08:46:32.955Z,1012.45
2017-10-25T08:47:32.949Z,1012.59
2017-10-25T08:48:32.905Z,1012.53
2017-10-25T08:49:32.882Z,1012.61
2017-10-25T08:50:32.859Z,1012.62
2017-10-25T08:51:32.833Z,1012.40
2017-10-25T08:52:32.858Z,1012.67
2017-10-25T08:53:32.787Z,1012.78
2017-10-25T08:54:32.760Z,1012.65
2017-10-25T08:55:32.736Z,1012.64
2017-10-25T08:56:32.711Z,1012.62
2017-10-25T08:57:32.688Z,1012.75
2017-10-25T08:58:32.665Z,1012.71
2017-10-25T08:59:32.641Z,1012.67
2017-10-25T09:00:32.617Z,1012.56
2017-10-25T09:01:32.593Z,1012.61
2017-10-25T09:02:32.593Z,1012.76
2017-10-25T09:03:32.546Z,1012.54
2017-10-25T09:04:32.585Z,1012.49
2017-10-25T09:05:32.505Z,1012.58
2017-10-25T09:06:32.475Z,1012.44
2017-10-25T09:07:32.451Z,1012.57
2017-10-25T09:08:32.429Z,1012.65
2017-10-25T09:09:32.403Z,1012.66
2017-10-25T09:10:32.380Z,1012.78
2017-10-25T09:11:32.353Z,1012.74
2017-10-25T09:12:32.330Z,1012.76
2017-10-25T09:13:32.305Z,1012.70
2017-10-25T09:14:32.281Z,1012.89
2017-10-25T09:15:32.253Z,1012.42
2017-10-25T09:16:32.227Z,1012.84
2017-10-25T09:17:32.202Z,1012.71
2017-10-25T09:18:32.177Z,1012.80
2017-10-25T09:19:32.151Z,1012.51
2017-10-25T09:20:32.125Z,1012.75
2017-10-25T09:21:32.100Z,1012.59
2017-10-25T09:22:32.073Z,1012.90
2017-10-25T09:23:32.047Z,1012.90
2017-10-25T09:24:32.021Z,1013.05
2017-10-25T09:25:31.995Z,1013.38
2017-10-25T09:26:31.969Z,1013.44
2017-10-25T09:27:31.943Z,1013.32
2017-10-25T09:28:31.918Z,1013.43
2017-10-25T09:29:31.892Z,1013.12
2017-10-25T09:30:31.870Z,1012.96
2017-10-25T09:31:31.843Z,1013.30
2017-10-25T09:32:31.819Z,1013.25
2017-10-25T09:33:31.795Z,1012.87
2017-10-25T09:34:31.772Z,1012.61
2017-10-25T09:35:31.747Z,1012.68
2017-10-25T09:36:31.722Z,1012.98
2017-10-25T09:37:31.698Z,1012.82
2017-10-25T09:38:31.675Z,1012.83
2017-10-25T09:39:31.646Z,1013.49
2017-10-25T09:40:31.629Z,1013.73
2017-10-25T09:41:31.597Z,1012.88
2017-10-25T09:42:31.582Z,1012.95
2017-10-25T09:43:31.545Z,1012.86
2017-10-25T09:44:31.524Z,1012.71
2017-10-25T09:45:31.494Z,1012.84
2017-10-25T09:46:31.468Z,1014.33
2017-10-25T09:47:31.443Z,1012.92
2017-10-25T09:48:31.421Z,1012.69
2017-10-25T09:49:31.390Z,1013.32
2017-10-25T09:50:31.365Z,1012.77
2017-10-25T09:51:31.337Z,1012.81
2017-10-25T09:52:31.310Z,1013.37
2017-10-25T09:53:31.285Z,1013.65
2017-10-25T09:54:31.259Z,1013.17
2017-10-25T09:55:31.230Z,1013.49
2017-10-25T09:56:31.204Z,1012.79
2017-10-25T09:57:31.178Z,1013.18
2017-10-25T09:58:31.152Z,1014.50
2017-10-25T09:59:31.124Z,1014.57
2017-10-25T10:00:31.098Z,1012.87
2017-10-25T10:01:31.072Z,1013.72
2017-10-25T10:02:31.042Z,1012.91
2017-10-25T10:03:31.017Z,1015.46
2017-10-25T10:04:30.994Z,1015.36
2017-10-25T10:05:30.968Z,1014.24
2017-10-25T10:06:30.944Z,1014.42
2017-10-25T10:07:30.916Z,1014.52
2017-10-25T10:08:30.891Z,1012.72
2017-10-25T10:09:30.865Z,1013.45
2017-10-25T10:10:30.841Z,1014.01
2017-10-25T10:11:30.814Z,1014.17
2017-10-25T10:12:30.787Z,1013.09
2017-10-25T10:13:30.766Z,1013.53
2017-10-25T10:14:30.736Z,1014.28
2017-10-25T10:15:30.712Z,1012.79
2017-10-25T10:16:30.688Z,1012.89
2017-10-25T10:17:30.670Z,1012.95
2017-10-25T10:18:30.638Z,1012.94
2017-10-25T10:19:30.611Z,1013.15
2017-10-25T10:20:30.587Z,1012.93
2017-10-25T10:21:30.562Z,1013.05
2017-10-25T10:22:30.536Z,1012.77
2017-10-25T10:23:30.513Z,1012.95
2017-10-25T10:24:30.490Z,1012.73
2017-10-25T10:25:30.462Z,1013.17
2017-10-25T10:26:30.545Z,1012.82
2017-10-25T10:27:30.417Z,1013.31
2017-10-25T10:28:30.387Z,1013.47
2017-10-25T10:29:30.363Z,1013.28
2017-10-25T10:30:30.339Z,1013.21
2017-10-25T10:31:30.315Z,1012.94
2017-10-25T10:32:30.291Z,1013.44
2017-10-25T10:33:30.394Z,1012.82
2017-10-25T10:34:30.244Z,1012.85
2017-10-25T10:35:30.217Z,1012.92
2017-10-25T10:36:30.273Z,1012.95
2017-10-25T10:37:30.174Z,1012.85
2017-10-25T10:38:30.149Z,1012.74
2017-10-25T10:39:30.119Z,1013.38
2017-10-25T10:40:30.092Z,1012.92
2017-10-25T10:41:30.068Z,1013.33
2017-10-25T10:42:30.042Z,1012.85
2017-10-25T10:43:30.014Z,1013.38
2017-10-25T10:44:29.989Z,1013.47
2017-10-25T10:45:29.965Z,1013.17
2017-10-25T10:46:29.940Z,1012.86
2017-10-25T10:47:29.912Z,1012.81
2017-10-25T10:48:29.886Z,1013.51
2017-10-25T10:49:29.865Z,1012.79
2017-10-25T10:50:29.838Z,1012.79
2017-10-25T10:51:29.821Z,1012.76
2017-10-25T10:52:29.786Z,1013.45
2017-10-25T10:53:29.760Z,1012.79
2017-10-25T10:54:29.735Z,1013.00
2017-10-25T10:55:29.708Z,1013.30
2017-10-25T10:56:29.683Z,1013.38
2017-10-25T10:57:29.659Z,1012.79
2017-10-25T10:58:29.634Z,1012.62
2017-10-25T10:59:29.607Z,1012.82
2017-10-25T11:00:29.583Z,1013.46
2017-10-25T11:01:29.559Z,1013.50
2017-10-25T11:02:29.535Z,1013.23
2017-10-25T11:03:29.509Z,1012.88
2017-10-25T11:04:29.485Z,1013.32
2017-10-25T11:05:29.463Z,1012.86
2017-10-25T11:06:29.437Z,1012.71
2017-10-25T11:07:29.414Z,1012.80
2017-10-25T11:08:29.390Z,1013.07
2017-10-25T11:09:29.367Z,1013.06
2017-10-25T11:10:29.342Z,1013.11
2017-10-25T11:11:29.727Z,1013.18
2017-10-25T11:12:29.296Z,1013.24
2017-10-25T11:13:29.272Z,1013.35
2017-10-25T11:14:29.250Z,1013.33
2017-10-25T11:15:29.228Z,1012.88
2017-10-25T11:16:29.206Z,1013.02
2017-10-25T11:17:29.185Z,1013.13
2017-10-25T11:18:29.161Z,1012.89
2017-10-25T11:19:29.138Z,1012.78
2017-10-25T11:20:29.116Z,1012.70
2017-10-25T11:21:29.093Z,1012.65
2017-10-25T11:22:29.070Z,1012.68
2017-10-25T11:23:29.045Z,1012.78
2017-10-25T11:24:29.024Z,1012.95
2017-10-25T11:25:29.001Z,1012.96
2017-10-25T11:26:28.978Z,1012.93
2017-10-25T11:27:28.955Z,1012.89
2017-10-25T11:28:28.930Z,1012.91
2017-10-25T11:29:28.910Z,1012.81
2017-10-25T11:30:28.973Z,1013.08
2017-10-25T11:31:28.910Z,1013.01
2017-10-25T11:32:28.843Z,1013.16
2017-10-25T11:33:29.230Z,1013.11
2017-10-25T11:34:28.798Z,1013.06
2017-10-25T11:35:28.779Z,1013.06
2017-10-25T11:36:28.760Z,1013.06
2017-10-25T11:37:28.736Z,1012.80
2017-10-25T11:38:29.338Z,1012.78
2017-10-25T11:39:28.695Z,1012.87
2017-10-25T11:40:28.673Z,1012.82
2017-10-25T11:41:28.652Z,1013.00
2017-10-25T11:42:28.629Z,1013.03
2017-10-25T11:43:28.605Z,1013.00
2017-10-25T11:44:28.583Z,1013.09
2017-10-25T11:45:28.559Z,1012.91
2017-10-25T11:46:28.531Z,1012.33
2017-10-25T11:47:28.512Z,1012.93
2017-10-25T11:48:28.489Z,1012.84
2017-10-25T11:49:28.462Z,1012.86
2017-10-25T11:50:28.558Z,1012.82
2017-10-25T11:51:28.411Z,1012.75
2017-10-25T11:52:28.583Z,1012.82
2017-10-25T11:53:28.365Z,1012.74
2017-10-25T11:54:28.331Z,1012.65
2017-10-25T11:55:28.309Z,1012.74
2017-10-25T11:56:28.280Z,1012.76
2017-10-25T11:57:28.253Z,1012.94
2017-10-25T11:58:28.246Z,1012.67
2017-10-25T11:59:28.198Z,1012.70
2017-10-25T12:00:28.169Z,1012.80
2017-10-25T12:01:28.143Z,1012.75
2017-10-25T12:02:28.114Z,1012.70
2017-10-25T12:03:28.086Z,1012.85
2017-10-25T12:04:28.051Z,1012.76
2017-10-25T12:05:28.029Z,1012.86